Date,TemperatureHighF,TemperatureAvgF,TemperatureLowF,DewpointHighF,DewpointAvgF,DewpointLowF,HumidityHigh,HumidityAvg,HumidityLow,PressureMaxIn,PressureMinIn,WindSpeedMaxMPH,WindSpeedAvgMPH,GustSpeedMaxMPH,PrecipitationSumIn
2013-1-1,44,41,36,42,36,30,91,85,78,30.07,29.90,20,1,20,0.46
2013-1-2,44,38,36,40,35,33,90,89,87,30.11,29.89,9,1,9,0.07
2013-1-3,41,35,24,34,30,19,88,83,73,30.29,30.08,12,1,12,0.00
2013-1-4,40,27,18,29,21,14,86,77,60,30.39,30.29,15,2,15,0.00
2013-1-5,45,32,18,33,24,13,83,73,60,30.41,30.19,12,1,12,0.03
2013-1-6,42,38,36,36,33,30,86,80,75,30.22,30.06,15,3,15,0.04
2013-1-7,47,34,24,36,27,18,83,75,63,30.38,30.22,12,2,12,0.00
2013-1-8,54,33,20,38,24,15,84,72,50,30.40,30.25,9,0,9,0.00
2013-1-9,48,39,28,44,34,22,88,81,75,30.41,30.26,10,0,10,0.05
2013-1-10,66,52,40,59,47,37,92,84,71,30.41,30.11,14,1,14,0.00
2013-1-11,68,61,51,57,51,44,84,72,64,30.12,29.93,28,5,28,0.00
2013-1-12,71,59,48,63,54,44,89,84,75,30.07,29.92,9,0,9,0.00
2013-1-13,74,62,46,62,52,43,91,72,52,30.00,29.83,17,4,17,0.16
2013-1-14,61,50,40,54,46,38,91,88,79,30.19,29.91,16,2,16,1.78
2013-1-15,48,44,40,47,42,38,95,92,90,30.12,29.85,9,1,9,1.71
2013-1-16,56,49,46,55,48,44,97,96,95,29.98,29.79,20,2,20,0.68
2013-1-17,46,38,33,46,38,32,97,96,93,30.27,29.86,15,4,15,0.85
2013-1-18,36,30,24,35,29,22,96,95,93,30.51,30.26,0,0,0,0.34
2013-1-19,45,30,20,43,28,18,95,93,88,30.40,30.13,2,0,2,0.03
2013-1-20,51,34,23,44,31,21,95,87,70,30.16,30.05,16,3,16,0.00
2013-1-21,44,33,22,34,24,14,91,72,44,30.11,29.99,26,7,26,0.00
2013-1-22,30,25,19,14,9,5,63,50,36,30.28,30.09,21,8,21,0.00
2013-1-23,41,31,25,23,14,6,68,49,43,30.32,30.05,16,6,16,0.00
2013-1-24,43,32,21,32,16,5,70,53,38,30.40,29.99,22,8,22,0.00
2013-1-25,35,28,21,31,20,6,86,71,52,30.32,30.05,6,0,6,0.32
2013-1-26,43,34,24,33,29,19,88,80,67,30.33,30.11,14,4,14,0.08
2013-1-27,47,34,21,38,28,17,87,78,64,30.39,30.24,5,0,5,0.02
2013-1-28,60,47,35,49,40,31,87,78,64,30.31,30.12,10,1,10,0.00
2013-1-29,69,54,36,56,46,32,87,76,60,30.15,29.80,10,1,10,0.00
2013-1-30,69,60,43,58,52,38,88,76,64,29.80,29.37,37,8,37,1.50
2013-1-31,43,36,32,38,25,22,86,65,51,29.96,29.51,33,16,33,0.05
2013-2-1,44,25,17,30,14,7,81,61,47,30.37,29.84,43,10,43,0.00
2013-2-2,33,25,18,28,18,8,82,73,64,30.35,30.00,14,1,14,0.00
2013-2-3,40,34,27,34,28,19,87,79,66,30.10,29.90,23,8,23,0.16
2013-2-4,42,30,20,32,23,13,80,74,66,30.10,29.90,6,0,6,0.00
2013-2-5,52,39,29,43,32,23,82,77,65,29.95,29.86,14,2,14,0.00
2013-2-6,56,38,25,40,28,20,84,69,44,30.16,29.95,12,1,12,0.00
2013-2-7,58,44,31,43,34,23,79,70,54,30.12,29.86,12,2,12,0.01
2013-2-8,52,42,36,45,35,27,88,76,62,30.19,29.82,20,4,20,0.14
2013-2-9,50,35,23,32,24,17,79,67,46,30.31,30.17,12,1,12,0.00
2013-2-10,58,46,29,46,30,19,77,59,22,30.20,29.86,39,7,39,0.08
2013-2-11,60,54,45,50,44,33,82,68,58,30.03,29.83,23,7,23,0.00
2013-2-12,52,42,30,36,30,23,78,63,47,30.12,29.80,9,1,9,0.06
2013-2-13,49,43,38,43,37,32,83,80,73,29.89,29.56,25,7,25,0.12
2013-2-14,50,39,28,35,30,20,84,68,50,30.00,29.88,16,3,16,0.00
2013-2-15,55,38,25,40,29,19,81,71,47,30.05,29.89,23,4,23,0.08
2013-2-16,35,31,25,30,24,17,82,74,58,30.02,29.88,20,3,20,0.01
2013-2-17,37,27,18,17,11,5,70,51,35,30.24,30.02,29,9,29,0.00
2013-2-18,57,35,17,35,20,5,73,55,34,30.29,29.89,25,3,25,0.00
2013-2-19,50,44,34,41,28,15,84,54,33,30.06,29.79,31,12,31,0.08
2013-2-20,42,33,21,19,14,6,59,46,28,30.17,30.06,17,5,17,0.00
2013-2-21,51,34,18,34,18,7,73,53,30,30.23,29.97,13,3,13,0.22
2013-2-22,58,50,42,47,41,33,81,71,63,30.05,29.89,17,3,17,0.22
2013-2-23,56,47,39,50,42,35,87,83,78,29.93,29.75,12,1,12,0.07
2013-2-24,52,42,27,44,31,18,87,68,41,30.03,29.79,15,5,15,0.00
2013-2-25,56,39,25,40,28,17,78,66,49,30.02,29.79,16,1,16,0.00
2013-2-26,59,48,43,48,38,30,78,68,59,29.80,29.35,30,13,30,0.06
2013-2-27,47,42,39,37,33,31,79,71,60,29.76,29.56,22,12,22,0.04
2013-2-28,39,36,34,32,28,25,80,71,62,29.91,29.69,21,11,21,0.00
2013-3-1,38,36,33,33,30,26,83,79,71,29.91,29.85,12,6,12,0.01
2013-3-2,37,33,29,32,28,21,90,81,70,29.97,29.83,15,4,15,0.03
2013-3-3,32,29,26,22,19,18,76,67,57,30.05,29.95,14,4,14,0.00
2013-3-4,48,34,18,28,21,9,73,59,39,30.16,29.95,10,1,10,0.00
2013-3-5,50,40,29,47,34,21,89,80,65,29.97,29.51,37,6,37,1.27
2013-3-6,34,31,28,29,26,22,88,83,71,30.20,29.71,26,12,26,0.00
2013-3-7,36,33,30,30,28,26,85,80,75,30.29,30.17,4,0,4,0.00
2013-3-8,47,34,22,34,26,17,83,72,57,30.36,30.25,13,2,13,0.00
2013-3-9,65,40,22,42,29,17,81,66,34,30.29,30.09,9,0,9,0.00
2013-3-10,72,54,38,46,35,29,79,53,27,30.10,29.92,17,3,17,0.00
2013-3-11,61,58,52,49,44,32,83,63,34,29.93,29.67,27,9,27,0.68
2013-3-12,53,43,31,48,36,24,88,79,60,30.01,29.70,17,7,17,0.15
2013-3-13,42,35,28,33,24,16,82,66,47,30.23,29.98,26,7,26,0.00
2013-3-14,43,33,25,22,18,14,64,54,39,30.33,30.18,15,4,15,0.00
2013-3-15,64,46,28,41,31,17,70,56,39,30.19,29.80,20,4,20,0.00
2013-3-16,72,62,44,50,44,36,77,54,42,29.80,29.63,32,12,32,0.00
2013-3-17,70,59,49,54,48,41,79,69,53,29.88,29.72,14,2,14,0.00
2013-3-18,61,53,45,50,45,39,84,74,59,29.82,29.65,31,6,31,0.56
2013-3-19,55,46,34,47,32,15,88,61,27,30.05,29.71,26,7,26,0.14
2013-3-20,51,38,24,26,20,15,71,50,26,30.08,29.79,25,6,25,0.00
2013-3-21,37,29,21,24,13,8,66,50,35,29.98,29.84,20,7,20,0.00
2013-3-22,44,31,16,25,16,7,72,54,36,30.04,29.95,12,1,12,0.00
2013-3-23,51,43,38,40,33,25,75,67,55,29.97,29.70,10,1,10,0.00
2013-3-24,59,49,43,52,42,37,86,79,68,29.73,29.27,30,5,30,0.89
2013-3-25,42,34,31,37,28,26,85,78,68,29.92,29.45,33,18,33,1.16
2013-3-26,37,33,31,30,28,26,85,81,73,30.20,29.91,20,9,20,0.00
2013-3-27,42,34,25,29,26,17,87,72,56,30.27,30.18,18,4,18,0.00
2013-3-28,51,36,25,31,24,17,79,62,40,30.30,30.19,17,3,17,0.00
2013-3-29,52,37,22,36,27,15,81,69,40,30.29,30.17,17,3,17,0.03
2013-3-30,60,48,40,48,40,35,84,76,61,30.17,29.93,12,2,12,0.00
2013-3-31,60,53,46,53,48,39,88,83,73,29.94,29.75,21,5,21,0.41
2013-4-1,59,50,40,50,43,34,90,77,54,29.96,29.79,26,5,26,0.00
2013-4-2,51,41,28,35,27,21,79,58,34,30.14,29.96,16,3,16,0.00
2013-4-3,53,41,26,29,24,18,75,53,31,30.23,30.11,15,4,15,0.00
2013-4-4,44,40,38,35,31,22,85,71,43,30.14,29.91,14,3,14,0.94
2013-4-5,57,44,36,46,38,29,88,79,59,30.03,29.90,12,1,12,0.00
2013-4-6,69,46,30,49,36,25,85,70,38,30.15,29.97,10,1,10,0.00
2013-4-7,70,59,45,45,39,28,69,48,37,30.04,29.93,16,4,16,0.00
2013-4-8,77,58,41,58,45,34,83,65,42,30.03,29.89,15,2,15,0.00
2013-4-9,80,61,43,62,50,38,85,68,44,30.09,29.92,12,1,12,0.00
2013-4-10,81,64,47,64,53,43,86,69,48,30.00,29.78,16,1,16,0.00
2013-4-11,80,67,52,63,53,47,85,65,39,29.82,29.52,25,4,25,0.43
2013-4-12,64,58,44,58,49,35,87,74,53,29.85,29.44,21,7,21,0.38
2013-4-13,66,51,36,45,37,30,82,61,37,29.97,29.85,22,4,22,0.00
2013-4-14,73,56,36,54,39,30,83,57,28,29.99,29.83,24,4,24,0.01
2013-4-15,75,62,50,59,52,43,83,69,54,30.01,29.83,12,1,12,0.01
2013-4-16,80,64,46,62,53,41,86,69,46,30.13,30.00,15,1,15,0.00
2013-4-17,69,62,56,63,57,50,89,83,74,30.20,29.97,17,4,17,0.49
2013-4-18,78,68,54,67,56,51,90,69,44,29.97,29.70,24,5,24,0.00
2013-4-19,73,61,46,60,51,36,89,70,58,29.94,29.54,25,11,25,0.52
2013-4-20,57,46,34,38,33,27,78,61,40,30.23,29.94,14,4,14,0.00
2013-4-21,64,49,33,44,34,26,81,60,37,30.33,30.18,13,3,13,0.00
2013-4-22,66,51,36,46,37,29,79,61,41,30.28,30.06,15,3,15,0.00
2013-4-23,72,54,35,50,41,29,81,64,42,30.15,29.94,12,0,12,0.00
2013-4-24,74,56,41,58,48,36,86,75,47,30.10,29.85,33,5,33,0.21
2013-4-25,62,50,39,46,39,29,86,69,39,30.28,30.10,17,2,17,0.22
2013-4-26,68,51,32,46,37,26,81,61,41,30.36,30.20,12,2,12,0.00
2013-4-27,59,55,52,54,49,42,85,79,63,30.25,30.02,12,1,12,0.14
2013-4-28,62,57,52,55,50,46,88,79,66,30.07,29.79,25,4,25,0.04
2013-4-29,72,59,49,59,52,45,89,78,61,29.93,29.83,13,1,13,0.05
2013-4-30,78,62,46,62,52,42,88,72,51,29.99,29.87,12,1,12,0.46
2013-5-1,72,61,47,58,50,42,86,69,52,30.12,29.99,18,6,18,0.00
2013-5-2,74,62,51,59,52,45,82,69,56,30.11,30.04,15,4,15,0.00
2013-5-3,69,60,46,56,48,40,84,67,51,30.07,29.92,26,10,26,0.00
2013-5-4,62,58,53,49,45,35,78,63,51,29.92,29.83,28,14,28,0.03
2013-5-5,60,56,53,52,48,46,85,77,70,29.85,29.69,31,12,31,0.48
2013-5-6,71,58,49,58,50,44,90,77,47,29.81,29.64,20,3,20,0.36
2013-5-7,66,55,45,55,48,40,85,78,66,29.86,29.78,13,2,13,0.13
2013-5-8,67,59,54,60,54,50,88,83,71,29.95,29.82,16,4,16,0.03
2013-5-9,76,61,46,63,53,42,89,76,57,30.02,29.93,15,2,15,0.00
2013-5-10,77,62,48,66,55,44,87,79,61,29.99,29.83,15,2,15,0.18
2013-5-11,68,63,58,63,58,52,89,85,81,29.85,29.73,14,2,14,0.19
2013-5-12,61,54,40,52,44,30,86,70,44,30.04,29.84,21,4,21,0.00
2013-5-13,62,48,35,42,34,28,81,59,35,30.15,30.03,20,4,20,0.00
2013-5-14,75,55,34,55,42,27,80,63,46,30.17,29.92,16,3,16,0.00
2013-5-15,81,65,50,60,52,43,84,65,45,30.02,29.85,20,4,20,0.00
2013-5-16,75,64,50,61,54,45,84,71,58,29.95,29.87,14,2,14,0.00
2013-5-17,82,65,52,67,57,46,86,77,54,30.01,29.89,26,0,26,0.06
2013-5-18,74,65,57,67,61,53,90,85,77,29.99,29.89,4,0,4,0.11
2013-5-19,80,69,62,72,63,58,90,84,69,29.96,29.85,18,1,18,0.27
2013-5-20,82,69,59,70,63,55,90,81,65,30.01,29.87,12,1,12,0.00
2013-5-21,86,70,58,72,63,53,88,77,54,29.95,29.77,40,2,40,0.16
2013-5-22,82,67,56,72,62,52,89,83,69,29.86,29.74,26,1,26,0.68
2013-5-23,77,67,61,66,60,55,91,81,60,29.88,29.73,23,3,23,0.55
2013-5-24,67,59,46,55,49,37,86,70,47,30.19,29.87,17,2,17,0.01
2013-5-25,70,55,38,51,43,32,83,65,43,30.28,30.08,7,1,7,0.00
2013-5-26,74,62,53,53,49,44,79,64,43,30.20,30.08,12,1,12,0.00
2013-5-27,82,66,48,64,55,43,84,68,50,30.13,29.96,12,1,12,0.00
2013-5-28,85,71,55,68,59,49,84,69,49,30.06,29.95,15,2,15,0.00
2013-5-29,86,74,55,66,59,48,81,61,46,30.09,29.96,10,1,10,0.00
2013-5-30,87,74,56,68,59,50,82,61,35,30.11,29.97,15,2,15,0.00
2013-5-31,87,76,61,66,58,53,78,56,38,30.05,29.92,20,3,20,0.00
2013-6-1,88,78,62,68,60,53,78,55,38,29.94,29.81,18,4,18,0.03
2013-6-2,74,70,66,68,64,60,87,80,63,29.89,29.77,16,1,16,0.66
2013-6-3,78,70,63,67,63,56,90,80,60,29.89,29.77,14,2,14,0.00
2013-6-4,82,69,56,66,60,52,88,73,53,29.94,29.87,10,1,10,0.00
2013-6-5,85,71,59,70,62,54,85,74,49,29.94,29.79,22,1,22,0.69
2013-6-6,79,71,64,71,65,60,89,81,69,29.83,29.64,10,1,10,0.97
2013-6-7,79,70,64,71,65,60,88,84,75,29.75,29.58,12,1,12,0.49
2013-6-8,79,69,61,67,62,56,90,80,63,29.97,29.74,13,1,13,0.25
2013-6-9,84,70,59,70,63,55,88,78,60,30.02,29.86,13,1,13,0.43
2013-6-10,78,72,67,70,64,58,89,79,59,29.88,29.75,20,4,20,0.20
2013-6-11,82,72,63,67,63,58,89,74,56,29.92,29.80,14,3,14,0.45
2013-6-12,88,76,63,76,67,58,86,75,62,29.92,29.77,15,4,15,0.00
2013-6-13,82,75,68,72,67,62,85,77,66,29.78,29.58,31,6,31,0.46
2013-6-14,77,67,56,64,58,52,89,74,50,29.96,29.76,12,1,12,0.00
2013-6-15,82,68,53,65,57,48,86,70,49,30.04,29.92,12,1,12,0.00
2013-6-16,83,72,59,68,62,53,85,71,53,30.01,29.88,18,2,18,0.00
2013-6-17,79,72,67,71,66,62,88,83,73,29.94,29.81,18,1,18,0.24
2013-6-18,72,69,64,68,65,60,90,87,83,29.86,29.73,14,1,14,0.45
2013-6-19,81,70,60,70,63,57,92,80,57,29.99,29.84,9,1,9,0.01
2013-6-20,82,70,59,70,63,54,87,77,65,30.08,29.98,12,0,12,0.00
2013-6-21,83,72,61,70,64,57,88,76,57,30.12,30.02,7,0,7,0.00
2013-6-22,84,71,60,68,60,55,88,70,41,30.13,29.97,9,1,9,0.00
2013-6-23,85,72,58,69,62,54,86,72,52,30.10,29.98,10,1,10,0.00
2013-6-24,86,75,63,72,66,59,87,75,55,30.10,29.95,13,1,13,0.00
2013-6-25,83,74,67,72,66,62,85,78,65,30.03,29.90,17,2,17,0.00
2013-6-26,83,73,64,73,67,60,88,81,69,29.93,29.77,15,2,15,0.03
2013-6-27,80,72,66,75,67,61,88,85,73,29.79,29.66,23,3,23,0.27
2013-6-28,83,74,65,73,68,61,90,82,68,29.71,29.54,23,4,23,0.00
2013-6-29,82,72,62,69,62,56,89,72,47,29.60,29.53,16,4,16,0.00
2013-6-30,69,67,64,63,61,56,83,79,76,29.67,29.59,6,1,6,0.06
2013-7-1,82,72,67,71,65,62,89,80,60,29.81,29.65,12,0,12,0.46
2013-7-2,85,73,66,72,66,62,90,80,56,29.96,29.77,23,1,23,0.03
2013-7-3,73,68,64,70,65,61,91,87,83,30.10,29.93,9,1,9,1.40
2013-7-4,80,70,64,74,66,62,92,88,76,30.10,29.99,18,0,18,0.12
2013-7-5,84,77,70,71,67,63,86,72,58,30.07,29.99,16,2,16,0.00
2013-7-6,86,75,68,70,66,63,86,75,55,30.05,29.93,20,2,20,0.12
2013-7-7,75,71,68,71,67,64,88,86,81,30.05,29.95,12,1,12,0.21
2013-7-8,86,74,68,73,68,62,91,82,59,30.09,29.98,7,1,7,0.00
2013-7-9,88,76,63,74,67,59,88,76,56,30.05,29.92,8,1,8,0.00
2013-7-10,86,75,68,76,69,63,88,80,64,29.97,29.80,22,1,22,0.31
2013-7-11,81,74,71,72,69,66,88,83,73,29.86,29.75,6,1,6,0.00
2013-7-12,82,73,64,71,65,60,89,79,60,29.87,29.78,13,1,13,0.00
2013-7-13,83,73,61,68,63,56,86,72,59,29.97,29.85,15,4,15,0.00
2013-7-14,82,75,68,73,67,62,86,76,65,30.14,29.95,20,3,20,0.26
2013-7-15,87,74,63,73,65,58,88,74,53,30.19,30.10,9,1,9,0.00
2013-7-16,91,76,62,73,66,58,88,72,48,30.23,30.11,9,1,9,0.00
2013-7-17,86,75,66,75,68,61,87,80,67,30.18,30.05,12,1,12,0.10
2013-7-18,88,74,68,78,69,64,90,84,69,30.11,29.94,12,1,12,0.05
2013-7-19,87,77,68,76,70,64,91,81,64,30.00,29.83,17,1,17,0.01
2013-7-20,85,74,69,76,69,64,88,82,70,29.92,29.79,12,1,12,0.04
2013-7-21,81,72,69,74,68,65,89,86,76,29.91,29.82,18,1,18,0.09
2013-7-22,83,73,65,74,68,62,91,84,71,29.87,29.69,18,2,18,0.88
2013-7-23,82,73,68,73,68,64,93,85,73,29.81,29.68,21,4,21,0.06
2013-7-24,82,75,68,73,69,64,90,82,70,29.77,29.67,15,1,15,0.12
2013-7-25,83,72,63,70,64,56,88,76,54,29.94,29.76,9,1,9,0.00
2013-7-26,87,72,57,71,63,53,87,75,56,29.96,29.84,22,1,22,1.14
2013-7-27,79,72,68,72,67,63,90,85,77,29.89,29.77,13,0,13,0.23
2013-7-28,80,71,63,70,64,55,90,79,60,29.95,29.78,14,2,14,0.44
2013-7-29,80,67,56,65,57,51,88,73,49,30.11,29.94,9,1,9,0.00
2013-7-30,78,67,55,67,59,50,87,77,60,30.14,30.03,7,0,7,0.00
2013-7-31,76,69,64,70,65,60,90,86,82,30.06,29.85,10,1,10,0.27
2013-8-1,83,74,65,73,68,59,91,82,66,29.87,29.79,12,0,12,0.00
2013-8-2,83,72,63,70,63,58,88,76,54,29.93,29.85,8,1,8,0.00
2013-8-3,81,72,63,70,64,57,87,77,63,29.93,29.86,13,3,13,0.00
2013-8-4,83,75,67,70,66,58,87,73,51,29.95,29.85,13,2,13,0.00
2013-8-5,83,72,60,70,63,55,88,75,55,29.97,29.85,13,2,13,0.00
2013-8-6,84,74,64,70,65,59,86,75,60,29.91,29.83,9,1,9,0.00
2013-8-7,78,74,69,73,68,65,88,85,79,29.92,29.84,10,0,10,0.66
2013-8-8,81,75,67,74,70,64,90,84,76,29.91,29.85,4,0,4,0.00
2013-8-9,87,76,68,75,70,65,90,80,64,29.94,29.85,12,2,12,0.00
2013-8-10,86,75,70,76,69,65,88,82,67,30.00,29.91,16,2,16,0.03
2013-8-11,85,74,69,75,69,65,90,84,69,30.04,29.91,12,2,12,0.04
2013-8-12,84,75,68,75,69,64,90,83,73,29.99,29.85,13,1,13,0.00
2013-8-13,80,73,69,72,68,64,89,85,74,29.86,29.76,20,3,20,0.34
2013-8-14,75,68,58,65,59,50,89,75,54,29.99,29.81,13,3,13,0.00
2013-8-15,78,66,56,65,58,51,86,75,56,30.01,29.91,12,1,12,0.00
2013-8-16,80,68,58,66,59,53,86,74,52,30.01,29.92,13,2,13,0.00
2013-8-17,76,67,57,64,60,52,86,78,65,30.05,29.98,12,1,12,0.14
2013-8-18,78,69,65,71,64,61,89,84,72,30.08,29.98,10,0,10,0.16
2013-8-19,81,72,66,70,66,63,90,83,69,30.06,29.93,5,0,5,0.21
2013-8-20,84,74,66,72,67,62,89,79,62,30.06,29.96,7,1,7,0.00
2013-8-21,81,73,66,73,67,62,89,83,73,30.10,30.00,9,0,9,0.00
2013-8-22,84,74,66,72,67,62,90,79,62,30.06,29.91,7,1,7,0.00
2013-8-23,80,70,63,73,65,59,89,85,76,29.99,29.91,10,1,10,0.04
2013-8-24,83,71,61,71,63,54,92,78,52,30.16,29.99,13,3,13,0.00
2013-8-25,82,67,54,64,56,49,88,69,41,30.28,30.15,12,1,12,0.00
2013-8-26,82,67,54,68,58,49,87,75,58,30.23,30.03,12,2,12,0.00
2013-8-27,81,70,60,71,64,55,87,80,70,30.06,29.92,12,1,12,0.00
2013-8-28,85,75,67,74,68,63,88,79,64,29.95,29.84,14,3,14,0.00
2013-8-29,86,78,71,74,70,65,83,77,66,29.88,29.78,12,2,12,0.00
2013-8-30,88,76,66,75,67,62,90,75,51,29.90,29.77,13,2,13,0.00
2013-8-31,87,74,66,76,68,62,88,81,63,29.86,29.71,16,1,16,0.26
2013-9-1,84,74,68,76,68,63,89,81,64,29.81,29.68,20,2,20,0.21
2013-9-2,82,73,64,72,67,60,88,81,71,29.82,29.72,14,2,14,0.00
2013-9-3,82,72,65,70,65,58,89,80,63,29.91,29.71,20,1,20,0.12
2013-9-4,83,69,59,69,61,55,90,77,55,30.02,29.91,9,1,9,0.00
2013-9-5,81,67,56,67,58,52,89,74,45,30.08,30.00,10,1,10,0.00
2013-9-6,83,68,54,68,57,49,88,71,46,30.09,29.96,14,2,14,0.00
2013-9-7,82,68,54,68,59,50,88,74,56,30.03,29.89,15,2,15,0.00
2013-9-8,82,70,61,71,63,56,88,79,64,29.91,29.84,10,1,10,0.00
2013-9-9,89,73,60,74,63,57,90,74,47,30.00,29.90,12,1,12,0.00
2013-9-10,88,73,61,72,64,57,88,75,52,30.12,29.99,20,1,20,0.00
2013-9-11,86,75,69,74,68,63,90,80,62,30.12,29.96,7,0,7,0.09
2013-9-12,81,71,65,73,66,61,89,83,73,29.98,29.77,18,2,18,1.02
2013-9-13,76,68,56,66,60,48,90,77,50,29.89,29.75,12,2,12,3.79
2013-9-14,75,60,49,58,51,44,84,72,50,30.00,29.88,12,1,12,0.00
2013-9-15,79,64,48,64,55,44,87,74,53,30.09,29.98,10,0,10,0.00
2013-9-16,78,65,55,67,58,50,88,78,64,30.07,30.01,12,1,12,0.00
2013-9-17,77,66,57,65,58,51,86,75,60,30.12,30.04,10,1,10,0.00
2013-9-18,68,61,54,61,56,50,88,83,76,30.13,30.05,5,0,5,0.00
2013-9-19,78,68,62,68,63,57,90,83,70,30.08,29.95,9,1,9,0.00
2013-9-20,82,69,58,70,61,55,90,78,58,29.99,29.78,12,1,12,0.00
2013-9-21,73,65,60,65,60,56,89,85,75,29.78,29.61,17,1,17,0.76
2013-9-22,73,62,53,61,56,47,92,82,62,29.86,29.69,9,1,9,0.03
2013-9-23,77,60,47,65,53,43,89,77,58,29.94,29.84,13,1,13,0.00
2013-9-24,79,64,50,64,55,46,88,75,56,29.98,29.78,9,1,9,0.00
2013-9-25,68,64,62,64,60,56,92,87,81,29.80,29.72,10,1,10,0.18
2013-9-26,75,66,55,65,60,50,91,82,63,29.95,29.77,10,1,10,0.01
2013-9-27,77,62,50,64,54,47,89,76,53,30.06,29.94,9,1,9,0.00
2013-9-28,75,60,48,62,52,43,87,76,57,30.14,30.01,12,1,12,0.00
2013-9-29,71,59,48,62,53,43,87,80,69,30.06,29.92,12,1,12,0.00
2013-9-30,74,64,54,63,58,50,89,79,63,29.99,29.87,12,1,12,0.00
2013-10-1,76,63,52,64,56,48,89,78,60,30.06,29.95,12,1,12,0.00
2013-10-2,80,63,50,68,56,46,89,78,58,30.10,29.97,7,0,7,0.00
2013-10-3,81,65,54,68,57,49,88,77,58,30.06,29.94,10,1,10,0.00
2013-10-4,83,68,57,68,59,52,88,75,57,30.08,29.97,8,0,8,0.00
2013-10-5,85,67,54,70,59,50,89,75,52,30.08,29.89,10,0,10,0.00
2013-10-6,83,70,57,67,59,53,89,69,49,29.91,29.68,22,5,22,0.00
2013-10-7,74,60,49,61,53,44,87,79,63,30.01,29.67,16,2,16,0.31
2013-10-8,71,54,42,57,46,38,88,74,50,30.09,30.00,16,3,16,0.01
2013-10-9,74,56,43,58,47,38,87,73,52,30.14,30.02,10,0,10,0.00
2013-10-10,72,56,41,58,47,37,88,74,54,30.09,29.96,10,1,10,0.00
2013-10-11,76,60,45,60,52,41,87,74,54,30.01,29.87,7,0,7,0.00
2013-10-12,72,64,56,62,58,51,86,78,67,30.00,29.88,12,1,12,0.00
2013-10-13,72,65,60,65,60,56,89,83,74,30.11,30.00,12,0,12,0.09
2013-10-14,75,64,56,66,59,50,92,83,65,30.15,29.98,13,2,13,0.00
2013-10-15,76,62,50,64,55,46,90,80,65,30.07,29.91,2,0,2,0.00
2013-10-16,71,62,52,62,56,48,89,82,72,29.96,29.85,5,0,5,0.00
2013-10-17,69,62,54,64,58,49,89,85,81,29.91,29.72,18,2,18,0.01
2013-10-18,65,56,50,54,48,42,89,78,61,29.98,29.86,12,1,12,0.00
2013-10-19,62,54,48,54,47,43,88,78,61,29.92,29.78,21,3,21,0.00
2013-10-20,64,49,38,46,39,30,84,69,46,30.02,29.92,8,1,8,0.00
2013-10-21,69,49,34,54,39,28,85,70,47,30.07,29.90,14,1,14,0.00
2013-10-22,66,55,46,53,46,39,85,73,57,29.92,29.74,12,2,12,0.00
2013-10-23,54,47,33,48,39,25,84,73,61,30.02,29.67,26,7,26,0.00
2013-10-24,52,41,31,38,33,24,81,71,57,30.16,30.02,20,3,20,0.00
2013-10-25,46,38,26,33,27,19,74,66,53,30.37,30.15,12,2,12,0.00
2013-10-26,57,39,21,35,26,15,81,62,35,30.32,30.01,18,2,18,0.00
2013-10-27,65,56,48,48,41,34,70,58,50,30.05,29.95,15,2,15,0.00
2013-10-28,66,58,52,57,50,45,85,76,66,30.17,30.01,12,1,12,0.09
2013-10-29,70,60,51,57,50,45,86,72,48,30.25,30.11,15,2,15,0.00
2013-10-30,75,61,51,59,52,44,84,72,51,30.18,30.02,20,2,20,0.00
2013-10-31,72,62,50,59,52,44,86,70,55,30.05,29.51,22,6,22,0.00
2013-11-1,72,64,47,59,52,38,83,65,44,29.70,29.50,24,7,24,0.28
2013-11-2,61,49,41,48,39,32,83,68,44,29.98,29.69,18,2,18,0.00
2013-11-3,54,42,32,42,33,25,82,70,53,30.27,29.97,14,1,14,0.00
2013-11-4,63,43,28,45,32,22,84,67,41,30.39,30.26,6,0,6,0.00
2013-11-5,65,47,34,45,35,26,81,65,37,30.42,30.25,5,0,5,0.00
2013-11-6,73,57,34,58,45,26,84,66,47,30.28,29.94,20,3,20,0.00
2013-11-7,60,50,31,53,42,24,88,75,61,30.20,29.88,15,4,15,0.14
2013-11-8,52,38,26,36,28,21,83,70,44,30.32,30.20,12,1,12,0.00
2013-11-9,56,38,24,40,26,17,81,64,41,30.28,30.16,10,1,10,0.00
2013-11-10,62,42,28,43,30,20,80,62,39,30.26,30.13,18,3,18,0.00
2013-11-11,63,39,22,40,24,15,79,58,25,30.29,30.09,12,1,12,0.00
2013-11-12,48,36,21,39,27,12,81,70,61,30.52,30.02,18,4,18,0.00
2013-11-13,39,26,17,26,17,10,78,68,55,30.61,30.44,14,1,14,0.00
2013-11-14,56,30,15,34,18,9,79,62,35,30.47,30.24,7,0,7,0.00
2013-11-15,50,37,21,41,29,11,85,74,63,30.28,30.10,9,0,9,0.08
2013-11-16,69,51,40,59,45,36,90,81,66,30.14,29.99,9,0,9,0.02
2013-11-17,70,61,47,60,53,42,85,76,65,30.00,29.69,18,3,18,0.05
2013-11-18,66,54,34,59,42,23,86,65,36,30.06,29.67,21,4,21,0.01
2013-11-19,49,37,25,33,26,17,79,64,46,30.18,30.06,13,2,13,0.00
2013-11-20,56,40,26,37,27,19,78,61,40,30.27,30.11,18,1,18,0.00
2013-11-21,68,49,29,52,39,21,80,69,56,30.34,30.18,23,4,23,0.00
2013-11-22,60,54,45,53,49,40,90,83,78,30.21,30.07,7,1,7,0.29
2013-11-23,56,45,29,53,40,22,90,83,70,30.29,30.06,17,3,17,0.13
2013-11-24,32,26,18,23,15,9,73,63,48,30.53,30.29,13,2,13,0.00
2013-11-25,38,29,18,27,19,9,73,66,58,30.45,30.13,5,0,5,0.00
2013-11-26,46,42,36,43,37,27,90,84,72,30.13,29.63,13,1,13,1.77
2013-11-27,42,31,25,39,27,20,90,86,77,30.24,29.65,16,2,16,0.24
2013-11-28,37,25,15,29,20,10,85,79,71,30.46,30.23,4,0,4,0.07
2013-11-29,46,29,17,35,22,12,85,76,61,30.57,30.44,9,0,9,0.00
2013-11-30,53,32,20,40,24,14,82,73,58,30.50,30.25,0,0,0,0.00
2013-12-1,54,34,20,40,25,14,81,70,54,30.26,29.94,7,0,7,0.00
2013-12-2,51,43,34,44,37,27,83,78,71,29.94,29.74,7,0,7,0.00
2013-12-3,62,49,41,53,43,35,86,79,70,29.81,29.72,7,0,7,0.00
2013-12-4,72,53,41,59,45,37,88,75,54,29.91,29.77,17,1,17,0.00
2013-12-5,74,57,43,63,51,36,86,79,62,29.97,29.81,12,1,12,0.05
2013-12-6,61,55,45,59,52,42,92,89,85,30.05,29.72,33,2,33,0.93
2013-12-7,45,39,36,42,36,32,91,89,84,30.34,30.02,14,6,14,0.05
2013-12-8,54,44,36,49,40,32,90,86,80,30.27,29.97,14,1,14,0.33
2013-12-9,50,46,42,47,44,39,92,90,88,30.06,29.92,6,1,6,0.38
2013-12-10,44,36,23,42,33,19,95,87,77,30.33,29.86,21,5,21,0.46
2013-12-11,47,29,17,36,23,14,88,79,60,30.42,30.26,8,0,8,0.00
2013-12-12,36,26,19,25,19,12,82,74,59,30.46,30.33,15,2,15,0.01
2013-12-13,48,30,17,33,21,10,80,69,54,30.37,30.07,12,0,12,0.00
2013-12-14,50,44,36,45,37,27,86,76,62,30.10,29.67,20,2,20,0.04
2013-12-15,49,37,31,45,32,26,88,83,78,30.11,29.67,18,9,18,0.04
2013-12-16,50,35,28,37,28,20,84,75,58,30.17,30.01,14,3,14,0.00
2013-12-17,54,40,24,40,28,18,82,64,48,30.11,29.88,23,7,23,0.00
2013-12-18,44,31,21,24,17,11,71,56,39,30.27,30.11,15,3,15,0.00
2013-12-19,54,34,19,36,22,11,75,63,45,30.29,30.08,5,0,5,0.00
2013-12-20,65,42,26,48,31,19,80,68,45,30.15,29.97,10,1,10,0.00
2013-12-21,73,60,40,60,50,33,84,69,58,29.98,29.70,29,7,29,0.00
2013-12-22,74,60,54,60,53,50,89,79,55,29.96,29.68,29,4,29,1.79
2013-12-23,56,46,36,52,42,31,92,88,84,30.24,29.90,13,3,13,0.24
2013-12-24,36,30,20,31,23,14,84,76,66,30.42,30.22,17,4,17,0.00
2013-12-25,20,19,18,14,13,12,77,77,77,30.40,30.36,0,0,0,0.00
2013-12-27,49,34,21,33,21,12,70,60,49,30.40,30.33,9,1,9,0.00
2013-12-28,44,32,18,35,24,10,81,73,67,30.38,29.94,6,0,6,0.29
2013-12-29,47,44,40,43,40,34,90,86,80,29.97,29.69,22,6,22,0.29
2013-12-30,43,38,35,39,35,32,88,87,86,30.15,29.92,9,2,9,0.00
2013-12-31,39,32,22,32,26,17,88,79,64,30.35,30.12,18,4,18,0.00
2014-1-1,48,29,18,38,22,13,84,77,67,30.32,30.04,5,0,5,0.00
2014-1-2,39,31,20,35,26,13,88,82,73,30.04,29.65,30,6,30,0.20